sensor_id;sensor_type;location;lat;lon;timestamp;P1;durP1;ratioP1;P2;durP2;ratioP2
45402;SDS011;47427;51.976;5.326;2023-04-25T00:00:58;31.52;;;22.65;;
45402;SDS011;47427;51.976;5.326;2023-04-25T00:04:20;24.27;;;21.92;;
45402;SDS011;47427;51.976;5.326;2023-04-25T00:07:43;24.10;;;21.83;;
45402;SDS011;47427;51.976;5.326;2023-04-25T00:11:06;22.88;;;20.98;;
45402;SDS011;47427;51.976;5.326;2023-04-25T00:14:27;25.33;;;21.88;;
45402;SDS011;47427;51.976;5.326;2023-04-25T00:17:51;24.77;;;20.60;;
45402;SDS011;47427;51.976;5.326;2023-04-25T00:21:14;22.60;;;19.88;;
45402;SDS011;47427;51.976;5.326;2023-04-25T00:24:38;24.08;;;21.35;;
45402;SDS011;47427;51.976;5.326;2023-04-25T00:27:59;26.15;;;21.65;;
45402;SDS011;47427;51.976;5.326;2023-04-25T00:31:22;28.50;;;22.88;;
45402;SDS011;47427;51.976;5.326;2023-04-25T00:34:43;28.13;;;22.33;;
45402;SDS011;47427;51.976;5.326;2023-04-25T00:38:06;28.20;;;22.25;;
45402;SDS011;47427;51.976;5.326;2023-04-25T00:41:27;29.85;;;21.50;;
45402;SDS011;47427;51.976;5.326;2023-04-25T00:44:52;25.33;;;22.48;;
45402;SDS011;47427;51.976;5.326;2023-04-25T00:48:15;24.42;;;21.60;;
45402;SDS011;47427;51.976;5.326;2023-04-25T00:51:37;25.50;;;22.30;;
45402;SDS011;47427;51.976;5.326;2023-04-25T00:55:00;28.13;;;22.60;;
45402;SDS011;47427;51.976;5.326;2023-04-25T00:58:23;26.27;;;22.10;;
45402;SDS011;47427;51.976;5.326;2023-04-25T01:01:45;24.95;;;20.95;;
45402;SDS011;47427;51.976;5.326;2023-04-25T01:05:08;27.05;;;21.70;;
45402;SDS011;47427;51.976;5.326;2023-04-25T01:08:30;29.02;;;21.83;;
45402;SDS011;47427;51.976;5.326;2023-04-25T01:11:53;24.67;;;22.05;;
45402;SDS011;47427;51.976;5.326;2023-04-25T01:15:16;26.08;;;22.00;;
45402;SDS011;47427;51.976;5.326;2023-04-25T01:18:38;23.30;;;21.27;;
45402;SDS011;47427;51.976;5.326;2023-04-25T01:22:02;26.73;;;23.13;;
45402;SDS011;47427;51.976;5.326;2023-04-25T01:25:25;28.20;;;22.15;;
45402;SDS011;47427;51.976;5.326;2023-04-25T01:28:47;25.33;;;22.33;;
45402;SDS011;47427;51.976;5.326;2023-04-25T01:32:10;32.15;;;23.25;;
45402;SDS011;47427;51.976;5.326;2023-04-25T01:35:33;28.13;;;22.60;;
45402;SDS011;47427;51.976;5.326;2023-04-25T01:38:56;30.38;;;22.90;;
45402;SDS011;47427;51.976;5.326;2023-04-25T01:42:19;25.25;;;22.70;;
45402;SDS011;47427;51.976;5.326;2023-04-25T01:45:40;29.05;;;23.63;;
45402;SDS011;47427;51.976;5.326;2023-04-25T01:49:05;31.73;;;23.27;;
45402;SDS011;47427;51.976;5.326;2023-04-25T01:52:28;28.05;;;23.70;;
45402;SDS011;47427;51.976;5.326;2023-04-25T01:55:51;27.55;;;24.00;;
45402;SDS011;47427;51.976;5.326;2023-04-25T01:59:16;31.00;;;24.65;;
45402;SDS011;47427;51.976;5.326;2023-04-25T02:02:53;30.73;;;24.08;;
45402;SDS011;47427;51.976;5.326;2023-04-25T02:06:22;29.00;;;23.77;;
45402;SDS011;47427;51.976;5.326;2023-04-25T02:09:47;29.15;;;26.23;;
45402;SDS011;47427;51.976;5.326;2023-04-25T02:13:12;28.85;;;25.75;;
45402;SDS011;47427;51.976;5.326;2023-04-25T02:17:13;31.15;;;24.67;;
45402;SDS011;47427;51.976;5.326;2023-04-25T02:20:36;27.75;;;24.73;;
45402;SDS011;47427;51.976;5.326;2023-04-25T02:23:58;29.10;;;24.02;;
45402;SDS011;47427;51.976;5.326;2023-04-25T02:27:22;29.38;;;22.98;;
45402;SDS011;47427;51.976;5.326;2023-04-25T02:30:45;36.40;;;25.98;;
45402;SDS011;47427;51.976;5.326;2023-04-25T02:34:07;31.55;;;24.42;;
45402;SDS011;47427;51.976;5.326;2023-04-25T02:37:34;30.50;;;23.60;;
45402;SDS011;47427;51.976;5.326;2023-04-25T02:40:56;26.60;;;23.88;;
45402;SDS011;47427;51.976;5.326;2023-04-25T02:44:38;34.63;;;23.55;;
45402;SDS011;47427;51.976;5.326;2023-04-25T02:48:00;28.85;;;24.38;;
45402;SDS011;47427;51.976;5.326;2023-04-25T02:51:22;38.53;;;26.52;;
45402;SDS011;47427;51.976;5.326;2023-04-25T02:54:45;26.90;;;23.95;;
45402;SDS011;47427;51.976;5.326;2023-04-25T02:58:06;31.58;;;26.08;;
45402;SDS011;47427;51.976;5.326;2023-04-25T03:01:44;35.65;;;24.70;;
45402;SDS011;47427;51.976;5.326;2023-04-25T03:05:25;27.35;;;24.13;;
45402;SDS011;47427;51.976;5.326;2023-04-25T03:08:48;35.30;;;25.85;;
45402;SDS011;47427;51.976;5.326;2023-04-25T03:12:11;30.23;;;24.20;;
45402;SDS011;47427;51.976;5.326;2023-04-25T03:15:33;37.72;;;25.52;;
45402;SDS011;47427;51.976;5.326;2023-04-25T03:18:56;28.60;;;23.92;;
45402;SDS011;47427;51.976;5.326;2023-04-25T03:22:21;33.00;;;23.30;;
45402;SDS011;47427;51.976;5.326;2023-04-25T03:25:43;31.42;;;25.17;;
45402;SDS011;47427;51.976;5.326;2023-04-25T03:29:05;33.38;;;23.90;;
45402;SDS011;47427;51.976;5.326;2023-04-25T03:32:28;31.58;;;23.52;;
45402;SDS011;47427;51.976;5.326;2023-04-25T03:35:51;28.55;;;24.30;;
45402;SDS011;47427;51.976;5.326;2023-04-25T03:39:15;29.90;;;22.58;;
45402;SDS011;47427;51.976;5.326;2023-04-25T03:42:41;25.98;;;22.40;;
45402;SDS011;47427;51.976;5.326;2023-04-25T03:46:04;31.00;;;24.98;;
45402;SDS011;47427;51.976;5.326;2023-04-25T03:49:27;32.83;;;23.50;;
45402;SDS011;47427;51.976;5.326;2023-04-25T03:52:52;30.15;;;23.63;;
45402;SDS011;47427;51.976;5.326;2023-04-25T03:56:14;28.08;;;23.17;;
45402;SDS011;47427;51.976;5.326;2023-04-25T03:59:39;22.40;;;20.10;;
45402;SDS011;47427;51.976;5.326;2023-04-25T04:03:03;21.20;;;19.02;;
45402;SDS011;47427;51.976;5.326;2023-04-25T04:06:26;22.08;;;20.05;;
45402;SDS011;47427;51.976;5.326;2023-04-25T04:09:56;21.70;;;19.80;;
45402;SDS011;47427;51.976;5.326;2023-04-25T04:13:25;21.77;;;19.80;;
45402;SDS011;47427;51.976;5.326;2023-04-25T04:16:50;22.77;;;20.85;;
45402;SDS011;47427;51.976;5.326;2023-04-25T04:20:12;22.02;;;19.88;;
45402;SDS011;47427;51.976;5.326;2023-04-25T04:23:36;24.73;;;22.50;;
45402;SDS011;47427;51.976;5.326;2023-04-25T04:26:59;23.88;;;21.90;;
45402;SDS011;47427;51.976;5.326;2023-04-25T04:30:46;23.52;;;21.63;;
45402;SDS011;47427;51.976;5.326;2023-04-25T04:34:08;24.20;;;21.58;;
45402;SDS011;47427;51.976;5.326;2023-04-25T04:37:30;21.95;;;19.77;;
45402;SDS011;47427;51.976;5.326;2023-04-25T04:40:53;26.67;;;21.15;;
45402;SDS011;47427;51.976;5.326;2023-04-25T04:44:24;23.10;;;21.13;;
45402;SDS011;47427;51.976;5.326;2023-04-25T04:48:07;24.38;;;22.08;;
45402;SDS011;47427;51.976;5.326;2023-04-25T04:51:29;23.45;;;21.55;;
45402;SDS011;47427;51.976;5.326;2023-04-25T04:55:03;23.20;;;21.05;;
45402;SDS011;47427;51.976;5.326;2023-04-25T04:58:45;26.00;;;21.00;;
45402;SDS011;47427;51.976;5.326;2023-04-25T05:02:30;24.02;;;21.65;;
45402;SDS011;47427;51.976;5.326;2023-04-25T05:06:05;25.45;;;23.02;;
45402;SDS011;47427;51.976;5.326;2023-04-25T05:09:45;24.17;;;22.08;;
45402;SDS011;47427;51.976;5.326;2023-04-25T05:13:27;24.02;;;21.98;;
45402;SDS011;47427;51.976;5.326;2023-04-25T05:17:03;23.08;;;21.40;;
45402;SDS011;47427;51.976;5.326;2023-04-25T05:20:41;24.08;;;22.08;;
45402;SDS011;47427;51.976;5.326;2023-04-25T05:24:29;24.42;;;22.60;;
45402;SDS011;47427;51.976;5.326;2023-04-25T05:28:03;24.40;;;22.30;;
45402;SDS011;47427;51.976;5.326;2023-04-25T05:31:54;24.58;;;22.48;;
45402;SDS011;47427;51.976;5.326;2023-04-25T05:35:18;22.45;;;20.52;;
45402;SDS011;47427;51.976;5.326;2023-04-25T05:38:45;22.98;;;20.98;;
45402;SDS011;47427;51.976;5.326;2023-04-25T05:42:26;26.40;;;24.05;;
45402;SDS011;47427;51.976;5.326;2023-04-25T05:46:09;25.38;;;23.13;;
45402;SDS011;47427;51.976;5.326;2023-04-25T05:49:40;25.40;;;22.55;;
45402;SDS011;47427;51.976;5.326;2023-04-25T05:53:21;25.13;;;23.13;;
45402;SDS011;47427;51.976;5.326;2023-04-25T05:56:49;21.60;;;19.65;;
45402;SDS011;47427;51.976;5.326;2023-04-25T06:00:12;22.98;;;20.58;;
45402;SDS011;47427;51.976;5.326;2023-04-25T06:03:39;26.45;;;23.88;;
45402;SDS011;47427;51.976;5.326;2023-04-25T06:07:05;26.33;;;23.70;;
45402;SDS011;47427;51.976;5.326;2023-04-25T06:10:27;24.63;;;22.17;;
45402;SDS011;47427;51.976;5.326;2023-04-25T06:13:50;25.65;;;22.80;;
45402;SDS011;47427;51.976;5.326;2023-04-25T06:17:11;22.73;;;20.60;;
45402;SDS011;47427;51.976;5.326;2023-04-25T06:20:34;21.75;;;19.77;;
45402;SDS011;47427;51.976;5.326;2023-04-25T06:23:57;24.65;;;22.38;;
45402;SDS011;47427;51.976;5.326;2023-04-25T06:27:18;25.45;;;22.98;;
45402;SDS011;47427;51.976;5.326;2023-04-25T06:30:40;24.90;;;22.80;;
45402;SDS011;47427;51.976;5.326;2023-04-25T06:34:07;23.27;;;21.45;;
45402;SDS011;47427;51.976;5.326;2023-04-25T06:37:33;19.27;;;17.65;;
45402;SDS011;47427;51.976;5.326;2023-04-25T06:40:56;21.70;;;19.27;;
45402;SDS011;47427;51.976;5.326;2023-04-25T06:44:18;23.48;;;21.23;;
45402;SDS011;47427;51.976;5.326;2023-04-25T06:47:46;23.50;;;21.23;;
45402;SDS011;47427;51.976;5.326;2023-04-25T06:51:09;22.95;;;21.23;;
45402;SDS011;47427;51.976;5.326;2023-04-25T06:54:33;24.50;;;21.92;;
45402;SDS011;47427;51.976;5.326;2023-04-25T06:58:02;19.88;;;18.00;;
45402;SDS011;47427;51.976;5.326;2023-04-25T07:01:44;20.95;;;18.92;;
45402;SDS011;47427;51.976;5.326;2023-04-25T07:05:10;24.45;;;21.85;;
45402;SDS011;47427;51.976;5.326;2023-04-25T07:08:32;23.95;;;21.38;;
45402;SDS011;47427;51.976;5.326;2023-04-25T07:11:54;23.25;;;20.85;;
45402;SDS011;47427;51.976;5.326;2023-04-25T07:15:17;23.00;;;20.58;;
45402;SDS011;47427;51.976;5.326;2023-04-25T07:18:42;28.10;;;20.75;;
45402;SDS011;47427;51.976;5.326;2023-04-25T07:22:06;22.63;;;20.27;;
45402;SDS011;47427;51.976;5.326;2023-04-25T07:25:29;21.48;;;19.35;;
45402;SDS011;47427;51.976;5.326;2023-04-25T07:28:52;21.30;;;19.20;;
45402;SDS011;47427;51.976;5.326;2023-04-25T07:32:16;23.83;;;18.88;;
45402;SDS011;47427;51.976;5.326;2023-04-25T07:35:38;20.00;;;17.95;;
45402;SDS011;47427;51.976;5.326;2023-04-25T07:39:01;19.50;;;17.70;;
45402;SDS011;47427;51.976;5.326;2023-04-25T07:42:24;22.80;;;19.17;;
45402;SDS011;47427;51.976;5.326;2023-04-25T07:45:46;22.75;;;20.33;;
45402;SDS011;47427;51.976;5.326;2023-04-25T07:49:12;20.73;;;18.80;;
45402;SDS011;47427;51.976;5.326;2023-04-25T07:52:38;21.73;;;19.40;;
45402;SDS011;47427;51.976;5.326;2023-04-25T07:56:10;20.98;;;18.35;;
45402;SDS011;47427;51.976;5.326;2023-04-25T07:59:36;21.02;;;18.92;;
45402;SDS011;47427;51.976;5.326;2023-04-25T08:03:00;20.52;;;18.70;;
45402;SDS011;47427;51.976;5.326;2023-04-25T08:06:23;19.98;;;18.33;;
45402;SDS011;47427;51.976;5.326;2023-04-25T08:10:06;20.15;;;18.25;;
45402;SDS011;47427;51.976;5.326;2023-04-25T08:13:29;19.13;;;17.20;;
45402;SDS011;47427;51.976;5.326;2023-04-25T08:16:53;19.90;;;17.83;;
45402;SDS011;47427;51.976;5.326;2023-04-25T08:20:15;19.35;;;17.48;;
45402;SDS011;47427;51.976;5.326;2023-04-25T08:23:38;22.05;;;18.20;;
45402;SDS011;47427;51.976;5.326;2023-04-25T08:27:08;19.38;;;17.50;;
45402;SDS011;47427;51.976;5.326;2023-04-25T08:30:30;21.10;;;19.08;;
45402;SDS011;47427;51.976;5.326;2023-04-25T08:33:52;20.55;;;18.95;;
45402;SDS011;47427;51.976;5.326;2023-04-25T08:37:22;20.15;;;18.35;;
45402;SDS011;47427;51.976;5.326;2023-04-25T08:40:50;20.17;;;18.52;;
45402;SDS011;47427;51.976;5.326;2023-04-25T08:44:12;19.65;;;17.92;;
45402;SDS011;47427;51.976;5.326;2023-04-25T08:47:35;20.00;;;18.17;;
45402;SDS011;47427;51.976;5.326;2023-04-25T08:51:01;19.88;;;18.30;;
45402;SDS011;47427;51.976;5.326;2023-04-25T08:54:27;19.08;;;17.48;;
45402;SDS011;47427;51.976;5.326;2023-04-25T08:57:50;20.58;;;18.75;;
45402;SDS011;47427;51.976;5.326;2023-04-25T09:01:12;18.83;;;17.20;;
45402;SDS011;47427;51.976;5.326;2023-04-25T09:04:54;20.55;;;18.73;;
45402;SDS011;47427;51.976;5.326;2023-04-25T09:08:17;28.80;;;18.23;;
45402;SDS011;47427;51.976;5.326;2023-04-25T09:11:39;19.45;;;17.85;;
45402;SDS011;47427;51.976;5.326;2023-04-25T09:15:06;18.77;;;17.02;;
45402;SDS011;47427;51.976;5.326;2023-04-25T09:18:53;19.35;;;17.85;;
45402;SDS011;47427;51.976;5.326;2023-04-25T09:22:16;20.45;;;18.60;;
45402;SDS011;47427;51.976;5.326;2023-04-25T09:25:42;20.70;;;19.30;;
45402;SDS011;47427;51.976;5.326;2023-04-25T09:29:07;21.55;;;19.40;;
45402;SDS011;47427;51.976;5.326;2023-04-25T09:32:34;21.27;;;19.52;;
45402;SDS011;47427;51.976;5.326;2023-04-25T09:36:07;20.90;;;18.98;;
45402;SDS011;47427;51.976;5.326;2023-04-25T09:39:59;20.10;;;18.40;;
45402;SDS011;47427;51.976;5.326;2023-04-25T09:43:28;20.20;;;18.75;;
45402;SDS011;47427;51.976;5.326;2023-04-25T09:46:51;20.35;;;18.40;;
45402;SDS011;47427;51.976;5.326;2023-04-25T09:50:18;20.40;;;18.80;;
45402;SDS011;47427;51.976;5.326;2023-04-25T09:53:46;19.63;;;18.45;;
45402;SDS011;47427;51.976;5.326;2023-04-25T09:57:18;19.33;;;18.05;;
45402;SDS011;47427;51.976;5.326;2023-04-25T10:00:46;19.77;;;18.27;;
45402;SDS011;47427;51.976;5.326;2023-04-25T10:07:54;18.98;;;17.42;;
45402;SDS011;47427;51.976;5.326;2023-04-25T10:11:17;18.98;;;17.40;;
45402;SDS011;47427;51.976;5.326;2023-04-25T10:14:40;20.55;;;18.73;;
45402;SDS011;47427;51.976;5.326;2023-04-25T10:18:02;20.77;;;19.02;;
45402;SDS011;47427;51.976;5.326;2023-04-25T10:21:46;20.77;;;18.73;;
45402;SDS011;47427;51.976;5.326;2023-04-25T10:25:17;19.88;;;18.25;;
45402;SDS011;47427;51.976;5.326;2023-04-25T10:29:01;20.00;;;18.20;;
45402;SDS011;47427;51.976;5.326;2023-04-25T10:32:24;18.83;;;17.15;;
45402;SDS011;47427;51.976;5.326;2023-04-25T10:35:46;18.60;;;17.13;;
45402;SDS011;47427;51.976;5.326;2023-04-25T10:39:08;19.10;;;17.75;;
45402;SDS011;47427;51.976;5.326;2023-04-25T10:42:31;19.33;;;17.50;;
45402;SDS011;47427;51.976;5.326;2023-04-25T10:45:52;22.20;;;17.77;;
45402;SDS011;47427;51.976;5.326;2023-04-25T10:49:36;18.30;;;17.10;;
45402;SDS011;47427;51.976;5.326;2023-04-25T10:53:13;18.77;;;17.23;;
45402;SDS011;47427;51.976;5.326;2023-04-25T11:00:12;19.80;;;18.33;;
45402;SDS011;47427;51.976;5.326;2023-04-25T11:03:42;19.55;;;18.13;;
45402;SDS011;47427;51.976;5.326;2023-04-25T11:07:09;18.73;;;17.27;;
45402;SDS011;47427;51.976;5.326;2023-04-25T11:10:44;19.77;;;18.35;;
45402;SDS011;47427;51.976;5.326;2023-04-25T11:14:09;20.08;;;18.77;;
45402;SDS011;47427;51.976;5.326;2023-04-25T11:17:31;20.83;;;19.10;;
45402;SDS011;47427;51.976;5.326;2023-04-25T11:20:56;21.23;;;19.50;;
45402;SDS011;47427;51.976;5.326;2023-04-25T11:24:19;20.17;;;18.90;;
45402;SDS011;47427;51.976;5.326;2023-04-25T11:27:54;21.20;;;19.50;;
45402;SDS011;47427;51.976;5.326;2023-04-25T11:31:24;20.30;;;18.77;;
45402;SDS011;47427;51.976;5.326;2023-04-25T11:34:47;19.95;;;18.35;;
45402;SDS011;47427;51.976;5.326;2023-04-25T11:38:08;18.00;;;16.42;;
45402;SDS011;47427;51.976;5.326;2023-04-25T11:41:32;19.05;;;17.25;;
45402;SDS011;47427;51.976;5.326;2023-04-25T11:44:55;19.63;;;17.90;;
45402;SDS011;47427;51.976;5.326;2023-04-25T11:48:16;19.80;;;18.00;;
45402;SDS011;47427;51.976;5.326;2023-04-25T11:51:41;17.10;;;15.82;;
45402;SDS011;47427;51.976;5.326;2023-04-25T11:55:24;18.70;;;17.50;;
45402;SDS011;47427;51.976;5.326;2023-04-25T11:58:59;22.00;;;20.10;;
45402;SDS011;47427;51.976;5.326;2023-04-25T12:02:25;21.75;;;20.15;;
45402;SDS011;47427;51.976;5.326;2023-04-25T12:05:47;18.70;;;17.05;;
45402;SDS011;47427;51.976;5.326;2023-04-25T12:09:09;20.30;;;18.70;;
45402;SDS011;47427;51.976;5.326;2023-04-25T12:12:34;18.85;;;17.55;;
45402;SDS011;47427;51.976;5.326;2023-04-25T12:15:57;19.70;;;18.30;;
45402;SDS011;47427;51.976;5.326;2023-04-25T12:19:19;19.08;;;17.60;;
45402;SDS011;47427;51.976;5.326;2023-04-25T12:22:45;20.20;;;18.55;;
45402;SDS011;47427;51.976;5.326;2023-04-25T12:26:10;18.20;;;17.02;;
45402;SDS011;47427;51.976;5.326;2023-04-25T12:29:33;19.30;;;17.58;;
45402;SDS011;47427;51.976;5.326;2023-04-25T12:32:56;19.08;;;17.58;;
45402;SDS011;47427;51.976;5.326;2023-04-25T12:36:17;20.05;;;18.00;;
45402;SDS011;47427;51.976;5.326;2023-04-25T12:39:40;20.08;;;18.70;;
45402;SDS011;47427;51.976;5.326;2023-04-25T12:43:01;19.40;;;17.90;;
45402;SDS011;47427;51.976;5.326;2023-04-25T12:46:24;19.75;;;18.05;;
45402;SDS011;47427;51.976;5.326;2023-04-25T12:50:08;18.88;;;17.35;;
45402;SDS011;47427;51.976;5.326;2023-04-25T12:53:38;17.85;;;16.52;;
45402;SDS011;47427;51.976;5.326;2023-04-25T12:57:21;17.92;;;16.73;;
45402;SDS011;47427;51.976;5.326;2023-04-25T13:00:44;19.45;;;18.15;;
45402;SDS011;47427;51.976;5.326;2023-04-25T13:04:07;20.73;;;18.77;;
45402;SDS011;47427;51.976;5.326;2023-04-25T13:07:30;22.35;;;20.45;;
45402;SDS011;47427;51.976;5.326;2023-04-25T13:10:51;20.90;;;19.50;;
45402;SDS011;47427;51.976;5.326;2023-04-25T13:14:14;21.55;;;20.05;;
45402;SDS011;47427;51.976;5.326;2023-04-25T13:17:37;21.17;;;19.27;;
45402;SDS011;47427;51.976;5.326;2023-04-25T13:20:59;21.10;;;19.45;;
45402;SDS011;47427;51.976;5.326;2023-04-25T13:24:22;18.40;;;17.23;;
45402;SDS011;47427;51.976;5.326;2023-04-25T13:28:04;19.52;;;18.10;;
45402;SDS011;47427;51.976;5.326;2023-04-25T13:31:27;19.30;;;17.90;;
45402;SDS011;47427;51.976;5.326;2023-04-25T13:34:50;19.85;;;18.25;;
45402;SDS011;47427;51.976;5.326;2023-04-25T13:38:31;19.80;;;18.10;;
45402;SDS011;47427;51.976;5.326;2023-04-25T13:41:53;20.55;;;18.95;;
45402;SDS011;47427;51.976;5.326;2023-04-25T13:45:14;22.38;;;20.65;;
45402;SDS011;47427;51.976;5.326;2023-04-25T13:48:37;20.13;;;18.70;;
45402;SDS011;47427;51.976;5.326;2023-04-25T13:52:01;21.00;;;19.40;;
45402;SDS011;47427;51.976;5.326;2023-04-25T13:55:22;19.98;;;18.77;;
45402;SDS011;47427;51.976;5.326;2023-04-25T13:58:45;20.35;;;19.00;;
45402;SDS011;47427;51.976;5.326;2023-04-25T14:02:07;21.25;;;19.40;;
45402;SDS011;47427;51.976;5.326;2023-04-25T14:05:29;20.25;;;18.85;;
45402;SDS011;47427;51.976;5.326;2023-04-25T14:08:53;20.25;;;18.83;;
45402;SDS011;47427;51.976;5.326;2023-04-25T14:12:16;19.38;;;17.50;;
45402;SDS011;47427;51.976;5.326;2023-04-25T14:15:39;20.42;;;19.02;;
45402;SDS011;47427;51.976;5.326;2023-04-25T14:19:02;17.25;;;15.88;;
45402;SDS011;47427;51.976;5.326;2023-04-25T14:22:23;20.75;;;19.23;;
45402;SDS011;47427;51.976;5.326;2023-04-25T14:25:47;19.42;;;17.60;;
45402;SDS011;47427;51.976;5.326;2023-04-25T14:29:10;17.80;;;16.70;;
45402;SDS011;47427;51.976;5.326;2023-04-25T14:32:33;17.42;;;16.30;;
45402;SDS011;47427;51.976;5.326;2023-04-25T14:35:56;20.50;;;19.08;;
45402;SDS011;47427;51.976;5.326;2023-04-25T14:39:18;21.63;;;19.77;;
45402;SDS011;47427;51.976;5.326;2023-04-25T14:42:41;23.00;;;20.85;;
45402;SDS011;47427;51.976;5.326;2023-04-25T14:46:04;20.23;;;18.30;;
45402;SDS011;47427;51.976;5.326;2023-04-25T14:49:25;20.20;;;18.30;;
45402;SDS011;47427;51.976;5.326;2023-04-25T14:52:50;20.83;;;19.27;;
45402;SDS011;47427;51.976;5.326;2023-04-25T14:56:13;19.50;;;18.05;;
45402;SDS011;47427;51.976;5.326;2023-04-25T14:59:35;18.40;;;17.02;;
45402;SDS011;47427;51.976;5.326;2023-04-25T15:02:57;18.13;;;16.30;;
45402;SDS011;47427;51.976;5.326;2023-04-25T15:06:19;19.45;;;17.85;;
45402;SDS011;47427;51.976;5.326;2023-04-25T15:09:42;20.50;;;18.88;;
45402;SDS011;47427;51.976;5.326;2023-04-25T15:13:05;20.15;;;18.65;;
45402;SDS011;47427;51.976;5.326;2023-04-25T15:16:27;18.85;;;17.55;;
45402;SDS011;47427;51.976;5.326;2023-04-25T15:19:49;18.60;;;17.25;;
45402;SDS011;47427;51.976;5.326;2023-04-25T15:23:12;17.75;;;16.30;;
45402;SDS011;47427;51.976;5.326;2023-04-25T15:26:33;18.85;;;17.40;;
45402;SDS011;47427;51.976;5.326;2023-04-25T15:29:56;20.88;;;19.40;;
45402;SDS011;47427;51.976;5.326;2023-04-25T15:33:18;19.42;;;18.00;;
45402;SDS011;47427;51.976;5.326;2023-04-25T15:36:40;17.70;;;16.55;;
45402;SDS011;47427;51.976;5.326;2023-04-25T15:40:04;21.00;;;18.30;;
45402;SDS011;47427;51.976;5.326;2023-04-25T15:43:37;18.85;;;17.42;;
45402;SDS011;47427;51.976;5.326;2023-04-25T15:47:01;18.40;;;16.70;;
45402;SDS011;47427;51.976;5.326;2023-04-25T15:50:24;17.70;;;15.60;;
45402;SDS011;47427;51.976;5.326;2023-04-25T15:53:45;18.98;;;17.15;;
45402;SDS011;47427;51.976;5.326;2023-04-25T15:57:08;18.45;;;17.13;;
45402;SDS011;47427;51.976;5.326;2023-04-25T16:00:33;17.90;;;16.63;;
45402;SDS011;47427;51.976;5.326;2023-04-25T16:03:57;20.30;;;18.75;;
45402;SDS011;47427;51.976;5.326;2023-04-25T16:07:18;19.15;;;17.67;;
45402;SDS011;47427;51.976;5.326;2023-04-25T16:10:41;19.25;;;17.95;;
45402;SDS011;47427;51.976;5.326;2023-04-25T16:14:03;19.42;;;17.90;;
45402;SDS011;47427;51.976;5.326;2023-04-25T16:17:25;19.85;;;18.23;;
45402;SDS011;47427;51.976;5.326;2023-04-25T16:20:51;19.95;;;18.50;;
45402;SDS011;47427;51.976;5.326;2023-04-25T16:24:13;20.33;;;18.30;;
45402;SDS011;47427;51.976;5.326;2023-04-25T16:27:35;18.92;;;17.33;;
45402;SDS011;47427;51.976;5.326;2023-04-25T16:30:58;17.98;;;16.25;;
45402;SDS011;47427;51.976;5.326;2023-04-25T16:34:21;19.67;;;17.73;;
45402;SDS011;47427;51.976;5.326;2023-04-25T16:37:44;18.60;;;17.20;;
45402;SDS011;47427;51.976;5.326;2023-04-25T16:41:06;19.98;;;18.33;;
45402;SDS011;47427;51.976;5.326;2023-04-25T16:44:27;18.40;;;17.10;;
45402;SDS011;47427;51.976;5.326;2023-04-25T16:47:50;17.77;;;16.27;;
45402;SDS011;47427;51.976;5.326;2023-04-25T16:51:11;19.70;;;18.10;;
45402;SDS011;47427;51.976;5.326;2023-04-25T16:54:34;19.55;;;17.45;;
45402;SDS011;47427;51.976;5.326;2023-04-25T16:57:58;16.60;;;15.18;;
45402;SDS011;47427;51.976;5.326;2023-04-25T17:01:19;18.55;;;17.25;;
45402;SDS011;47427;51.976;5.326;2023-04-25T17:04:42;18.98;;;17.48;;
45402;SDS011;47427;51.976;5.326;2023-04-25T17:08:03;19.40;;;18.00;;
45402;SDS011;47427;51.976;5.326;2023-04-25T17:15:09;18.67;;;17.13;;
45402;SDS011;47427;51.976;5.326;2023-04-25T17:18:31;19.42;;;17.77;;
45402;SDS011;47427;51.976;5.326;2023-04-25T17:21:53;20.58;;;18.70;;
45402;SDS011;47427;51.976;5.326;2023-04-25T17:25:15;20.27;;;18.40;;
45402;SDS011;47427;51.976;5.326;2023-04-25T17:28:38;19.85;;;18.25;;
45402;SDS011;47427;51.976;5.326;2023-04-25T17:32:02;18.95;;;17.30;;
45402;SDS011;47427;51.976;5.326;2023-04-25T17:35:24;18.40;;;17.13;;
45402;SDS011;47427;51.976;5.326;2023-04-25T17:38:47;19.10;;;17.65;;
45402;SDS011;47427;51.976;5.326;2023-04-25T17:42:10;19.48;;;17.75;;
45402;SDS011;47427;51.976;5.326;2023-04-25T17:45:33;19.05;;;17.30;;
45402;SDS011;47427;51.976;5.326;2023-04-25T17:48:57;19.08;;;17.40;;
45402;SDS011;47427;51.976;5.326;2023-04-25T17:52:18;18.35;;;16.58;;
45402;SDS011;47427;51.976;5.326;2023-04-25T17:55:41;18.35;;;17.05;;
45402;SDS011;47427;51.976;5.326;2023-04-25T17:59:05;18.45;;;16.92;;
45402;SDS011;47427;51.976;5.326;2023-04-25T18:02:26;18.33;;;16.63;;
45402;SDS011;47427;51.976;5.326;2023-04-25T18:05:49;17.88;;;16.58;;
45402;SDS011;47427;51.976;5.326;2023-04-25T18:09:12;18.33;;;16.52;;
45402;SDS011;47427;51.976;5.326;2023-04-25T18:12:45;18.25;;;16.80;;
45402;SDS011;47427;51.976;5.326;2023-04-25T18:16:07;18.33;;;16.80;;
45402;SDS011;47427;51.976;5.326;2023-04-25T18:19:28;17.92;;;16.55;;
45402;SDS011;47427;51.976;5.326;2023-04-25T18:22:50;18.17;;;16.38;;
45402;SDS011;47427;51.976;5.326;2023-04-25T18:26:13;18.48;;;16.50;;
45402;SDS011;47427;51.976;5.326;2023-04-25T18:29:35;18.15;;;16.55;;
45402;SDS011;47427;51.976;5.326;2023-04-25T18:33:03;18.92;;;17.20;;
45402;SDS011;47427;51.976;5.326;2023-04-25T18:36:26;17.67;;;16.33;;
45402;SDS011;47427;51.976;5.326;2023-04-25T18:39:48;18.70;;;16.88;;
45402;SDS011;47427;51.976;5.326;2023-04-25T18:43:11;19.20;;;17.70;;
45402;SDS011;47427;51.976;5.326;2023-04-25T18:46:33;19.55;;;17.85;;
45402;SDS011;47427;51.976;5.326;2023-04-25T18:49:55;18.77;;;17.35;;
45402;SDS011;47427;51.976;5.326;2023-04-25T18:53:18;19.95;;;18.15;;
45402;SDS011;47427;51.976;5.326;2023-04-25T18:56:40;18.50;;;17.30;;
45402;SDS011;47427;51.976;5.326;2023-04-25T19:00:03;18.58;;;17.17;;
45402;SDS011;47427;51.976;5.326;2023-04-25T19:03:27;18.75;;;17.20;;
45402;SDS011;47427;51.976;5.326;2023-04-25T19:06:49;18.73;;;17.23;;
45402;SDS011;47427;51.976;5.326;2023-04-25T19:10:12;22.05;;;20.27;;
45402;SDS011;47427;51.976;5.326;2023-04-25T19:13:33;20.10;;;18.40;;
45402;SDS011;47427;51.976;5.326;2023-04-25T19:16:56;19.25;;;17.85;;
45402;SDS011;47427;51.976;5.326;2023-04-25T19:20:20;20.35;;;18.55;;
45402;SDS011;47427;51.976;5.326;2023-04-25T19:23:42;17.20;;;15.60;;
45402;SDS011;47427;51.976;5.326;2023-04-25T19:27:04;17.10;;;15.00;;
45402;SDS011;47427;51.976;5.326;2023-04-25T19:30:46;19.77;;;18.20;;
45402;SDS011;47427;51.976;5.326;2023-04-25T19:34:07;18.98;;;17.27;;
45402;SDS011;47427;51.976;5.326;2023-04-25T19:37:30;19.13;;;17.60;;
45402;SDS011;47427;51.976;5.326;2023-04-25T19:40:52;18.77;;;17.00;;
45402;SDS011;47427;51.976;5.326;2023-04-25T19:44:15;17.42;;;16.08;;
45402;SDS011;47427;51.976;5.326;2023-04-25T19:47:37;20.92;;;16.40;;
45402;SDS011;47427;51.976;5.326;2023-04-25T19:51:01;21.48;;;18.45;;
45402;SDS011;47427;51.976;5.326;2023-04-25T19:54:24;22.13;;;20.40;;
45402;SDS011;47427;51.976;5.326;2023-04-25T19:57:47;21.65;;;19.60;;
45402;SDS011;47427;51.976;5.326;2023-04-25T20:01:09;21.63;;;19.67;;
45402;SDS011;47427;51.976;5.326;2023-04-25T20:04:32;22.40;;;20.00;;
45402;SDS011;47427;51.976;5.326;2023-04-25T20:07:54;19.58;;;18.02;;
45402;SDS011;47427;51.976;5.326;2023-04-25T20:11:16;19.67;;;17.63;;